Lavaca Bay — WDF2105 — position and weather

sailwx.info

Track history (hours):
 
Tides and Currents Weather Stations Pressure Air Temp Water Temp Dewpoint Dewpoint Depression Visibility Wind Speed Wind Dir Waves Ship Positions

Lavaca Bay

Owner: Higman Barge Lines, Inc, Orange, TX. More information available from US FCC via Universal Licensing System and Coast Guard Vessel Documentation Center.

Last reported at 2017-Jan-19 23:03 UTC. Time now 2017-Jan-22 18:14 UTC.
Position N 31°59' W 091°08'.

Length 24 m; draft 3 m.

Type: Towing. MMSI: 367424940.

Date/timePositionNaut miles runAvg speedWind from/ knotsBaromVisibWave heightAir tempDewpointWater temp
2017-Jan-19 23:03N 31°59' W 091°08'4 8.6
2017-Jan-19 22:33N 32°02' W 091°04'4 0.6
2017-Jan-19 15:33N 32°05' W 091°06'5 5.5
2017-Jan-19 14:33N 32°09' W 091°00'3 2.9
2017-Jan-19 13:33N 32°11' W 090°59'0 0.0
2017-Jan-19 12:33N 32°11' W 090°59'0 0.0
2017-Jan-19 11:33N 32°11' W 090°59'0 0.0
2017-Jan-19 10:33N 32°11' W 090°59'0 0.0
2017-Jan-19 09:33N 32°11' W 090°59'0 0.0
2017-Jan-19 08:33N 32°11' W 090°59'0 0.0
2017-Jan-19 07:33N 32°11' W 090°59'0 0.0
2017-Jan-19 06:33N 32°11' W 090°59'0 0.0
2017-Jan-19 05:33N 32°11' W 090°59'0 0.0
2017-Jan-19 04:33N 32°11' W 090°59'0 0.0
2017-Jan-19 03:33N 32°11' W 090°59'0 0.0
2017-Jan-19 02:33N 32°11' W 090°59'0 0.0
2017-Jan-19 01:33N 32°11' W 090°59'0 0.0
2017-Jan-19 00:33N 32°11' W 090°59'1 0.6
2017-Jan-18 23:33N 32°12' W 090°59'8 8.2
2017-Jan-18 22:33N 32°19' W 090°54'3 3.0
2017-Jan-18 21:33N 32°21' W 090°57'0 0.0
2017-Jan-18 20:33N 32°21' W 090°57'0 0.0
2017-Jan-18 19:33N 32°21' W 090°57'0 0.0
2017-Jan-18 18:33N 32°21' W 090°57'0 0.0
2017-Jan-18 17:33N 32°21' W 090°57'2 1.8
2017-Jan-18 16:33N 32°21' W 090°59'7 7.1
2017-Jan-18 15:33N 32°26' W 091°04'8 7.8
2017-Jan-18 14:33N 32°34' W 091°06'  
Track history (hours):
 
Tides and Currents Weather Stations Pressure Air Temp Water Temp Dewpoint Dewpoint Depression Visibility Wind Speed Wind Dir Waves Ship Positions

Lavaca Bay

Owner: Higman Barge Lines, Inc, Orange, TX. More information available from US FCC via Universal Licensing System and Coast Guard Vessel Documentation Center.

Last reported at 2017-Jan-19 23:03 UTC. Time now 2017-Jan-22 18:14 UTC.
Position N 31°59' W 091°08'.

Length 24 m; draft 3 m.

Type: Towing. MMSI: 367424940.

Date/timePositionNaut miles runAvg speedWind from/ knotsBaromVisibWave heightAir tempDewpointWater temp
2017-Jan-19 23:03N 31°59' W 091°08'4 8.6
2017-Jan-19 22:33N 32°02' W 091°04'4 0.6
2017-Jan-19 15:33N 32°05' W 091°06'5 5.5
2017-Jan-19 14:33N 32°09' W 091°00'3 2.9
2017-Jan-19 13:33N 32°11' W 090°59'0 0.0
2017-Jan-19 12:33N 32°11' W 090°59'0 0.0
2017-Jan-19 11:33N 32°11' W 090°59'0 0.0
2017-Jan-19 10:33N 32°11' W 090°59'0 0.0
2017-Jan-19 09:33N 32°11' W 090°59'0 0.0
2017-Jan-19 08:33N 32°11' W 090°59'0 0.0
2017-Jan-19 07:33N 32°11' W 090°59'0 0.0
2017-Jan-19 06:33N 32°11' W 090°59'0 0.0
2017-Jan-19 05:33N 32°11' W 090°59'0 0.0
2017-Jan-19 04:33N 32°11' W 090°59'0 0.0
2017-Jan-19 03:33N 32°11' W 090°59'0 0.0
2017-Jan-19 02:33N 32°11' W 090°59'0 0.0
2017-Jan-19 01:33N 32°11' W 090°59'0 0.0
2017-Jan-19 00:33N 32°11' W 090°59'1 0.6
2017-Jan-18 23:33N 32°12' W 090°59'8 8.2
2017-Jan-18 22:33N 32°19' W 090°54'3 3.0
2017-Jan-18 21:33N 32°21' W 090°57'0 0.0
2017-Jan-18 20:33N 32°21' W 090°57'0 0.0
2017-Jan-18 19:33N 32°21' W 090°57'0 0.0
2017-Jan-18 18:33N 32°21' W 090°57'0 0.0
2017-Jan-18 17:33N 32°21' W 090°57'2 1.8
2017-Jan-18 16:33N 32°21' W 090°59'7 7.1
2017-Jan-18 15:33N 32°26' W 091°04'8 7.8
2017-Jan-18 14:33N 32°34' W 091°06'  

Dump ship's entire track history